Time;durP1;ratioP1;P1;durP2;ratioP2;P2;SDS_P1;SDS_P2;PMS_P1;PMS_P2;Temp;Humidity;BMP_temperature;BMP_pressure;BME280_temperature;BME280_humidity;BME280_pressure;Samples;Min_cycle;Max_cycle;Signal;HPM_P1;HPM_P2
2023/05/11 00:00:06;;;;;;;;;;;15.10;99.90;;;;;;5035004;28;20282;-39
2023/05/11 00:02:32;;;;;;;;;;;15.10;99.90;;;;;;5035005;28;20313;-39
2023/05/11 00:04:57;;;;;;;;;;;15.10;99.90;;;;;;5034970;28;19916;-40
2023/05/11 00:07:23;;;;;;;;;;;15.10;99.90;;;;;;5034357;28;20270;-40
2023/05/11 00:09:49;;;;;;;;;;;15.10;99.90;;;;;;5034756;28;19913;-39
2023/05/11 00:12:14;;;;;;;;;;;15.10;99.90;;;;;;5034737;28;19995;-39
2023/05/11 00:14:40;;;;;;;;;;;15.10;99.90;;;;;;5034703;28;19932;-40
2023/05/11 00:17:05;;;;;;;;;;;15.10;99.90;;;;;;5034155;28;19905;-39
2023/05/11 00:19:31;;;;;;;;;;;15.00;99.90;;;;;;5034632;28;19905;-39
2023/05/11 00:21:57;;;;;;;;;;;15.10;99.90;;;;;;5034661;28;20317;-39
2023/05/11 00:24:23;;;;;;;;;;;15.10;99.90;;;;;;5034529;28;20398;-39
2023/05/11 00:26:49;;;;;;;;;;;15.10;99.90;;;;;;5034095;28;19948;-39
2023/05/11 00:29:14;;;;;;;;;;;15.10;99.90;;;;;;5034583;28;20358;-39
2023/05/11 00:31:40;;;;;;;;;;;15.10;99.90;;;;;;5034385;28;19948;-39
2023/05/11 00:34:05;;;;;;;;;;;15.00;99.90;;;;;;5034414;28;19905;-38
2023/05/11 00:36:32;;;;;;;;;;;15.10;99.90;;;;;;5033652;28;19916;-40
2023/05/11 00:38:57;;;;;;;;;;;15.10;99.90;;;;;;5034292;28;19905;-40
2023/05/11 00:41:23;;;;;;;;;;;15.00;99.90;;;;;;5034268;28;19955;-39
2023/05/11 00:43:48;;;;;;;;;;;15.00;99.90;;;;;;5034264;28;19932;-39
2023/05/11 00:46:14;;;;;;;;;;;15.00;99.90;;;;;;5033583;28;19905;-39
2023/05/11 00:48:39;;;;;;;;;;;15.00;99.90;;;;;;5034023;28;19916;-39
2023/05/11 00:51:05;;;;;;;;;;;15.00;99.90;;;;;;5034154;28;19905;-39
2023/05/11 00:53:31;;;;;;;;;;;15.00;99.90;;;;;;5033911;28;19909;-39
2023/05/11 00:55:57;;;;;;;;;;;15.00;99.90;;;;;;5033635;28;19905;-39
2023/05/11 00:58:23;;;;;;;;;;;15.00;99.90;;;;;;5033820;28;19909;-40
2023/05/11 01:00:49;;;;;;;;;;;15.00;99.90;;;;;;5033907;28;20390;-39
2023/05/11 01:03:14;;;;;;;;;;;15.00;99.90;;;;;;5033100;28;19909;-39
2023/05/11 01:05:43;;;;;;;;;;;15.00;99.90;;;;;;5033750;28;19916;-38
2023/05/11 01:08:14;;;;;;;;;;;15.00;99.90;;;;;;5033377;28;19943;-39
2023/05/11 01:10:50;;;;;;;;;;;15.00;99.90;;;;;;5033784;28;19990;-39
2023/05/11 01:13:28;;;;;;;;;;;15.00;99.90;;;;;;5033642;28;19920;-39
2023/05/11 01:15:55;;;;;;;;;;;14.90;99.90;;;;;;5033134;28;19912;-39
2023/05/11 01:18:26;;;;;;;;;;;14.90;99.90;;;;;;5033378;28;20645;-39
2023/05/11 01:20:54;;;;;;;;;;;15.00;99.90;;;;;;5033689;28;20336;-39
2023/05/11 01:23:22;;;;;;;;;;;14.90;99.90;;;;;;5033544;28;20345;-40
2023/05/11 01:25:59;;;;;;;;;;;14.90;99.90;;;;;;5033124;28;20255;-39
2023/05/11 01:28:43;;;;;;;;;;;14.90;99.90;;;;;;5033380;28;20300;-39
2023/05/11 01:31:12;;;;;;;;;;;14.90;99.90;;;;;;5033319;28;19909;-39
2023/05/11 01:33:42;;;;;;;;;;;14.80;99.90;;;;;;5033271;28;19916;-39
2023/05/11 01:36:08;;;;;;;;;;;14.80;99.90;;;;;;5032837;28;20382;-41
2023/05/11 01:38:36;;;;;;;;;;;14.80;99.90;;;;;;5033721;28;19967;-39
2023/05/11 01:41:05;;;;;;;;;;;14.80;99.90;;;;;;5033287;28;20342;-39
2023/05/11 01:43:34;;;;;;;;;;;14.70;99.90;;;;;;5033561;28;19905;-39
2023/05/11 01:46:00;;;;;;;;;;;14.70;99.90;;;;;;5032690;28;19940;-39
2023/05/11 01:48:28;;;;;;;;;;;14.60;99.90;;;;;;5032944;28;20406;-40
2023/05/11 01:50:56;;;;;;;;;;;14.60;99.90;;;;;;5033027;28;19928;-40
2023/05/11 01:53:22;;;;;;;;;;;14.60;99.90;;;;;;5032924;28;19919;-40
2023/05/11 01:55:48;;;;;;;;;;;14.60;99.90;;;;;;5032574;28;19909;-40
2023/05/11 01:58:15;;;;;;;;;;;14.50;99.90;;;;;;5032614;28;20372;-39
2023/05/11 02:00:42;;;;;;;;;;;14.50;99.90;;;;;;5032829;28;19909;-39
2023/05/11 02:03:07;;;;;;;;;;;14.50;99.90;;;;;;5032800;28;19905;-39
2023/05/11 02:05:33;;;;;;;;;;;14.50;99.90;;;;;;5032720;28;19963;-39
2023/05/11 02:08:00;;;;;;;;;;;14.50;99.90;;;;;;5032116;28;20007;-39
2023/05/11 02:10:26;;;;;;;;;;;14.50;99.90;;;;;;5032558;28;19905;-39
2023/05/11 02:12:53;;;;;;;;;;;14.50;99.90;;;;;;5032501;28;19939;-39
2023/05/11 02:15:20;;;;;;;;;;;14.50;99.90;;;;;;5031444;28;19963;-39
2023/05/11 02:17:46;;;;;;;;;;;14.50;99.90;;;;;;5032073;28;19928;-39
2023/05/11 02:20:12;;;;;;;;;;;14.50;99.90;;;;;;5032650;28;20323;-39
2023/05/11 02:22:39;;;;;;;;;;;14.50;99.90;;;;;;5032430;28;19996;-39
2023/05/11 02:25:05;;;;;;;;;;;14.50;99.90;;;;;;5032325;28;20329;-40
2023/05/11 02:27:31;;;;;;;;;;;14.50;99.90;;;;;;5031711;28;19995;-39
2023/05/11 02:29:57;;;;;;;;;;;14.50;99.90;;;;;;5032244;28;19999;-39
2023/05/11 02:32:24;;;;;;;;;;;14.50;99.90;;;;;;5032209;28;20004;-40
2023/05/11 02:35:00;;;;;;;;;;;14.50;99.90;;;;;;5032167;28;20063;-41
2023/05/11 02:37:26;;;;;;;;;;;14.50;99.90;;;;;;5031355;28;19939;-39
2023/05/11 02:39:56;;;;;;;;;;;14.50;99.90;;;;;;5032355;28;19909;-39
2023/05/11 02:42:22;;;;;;;;;;;14.50;99.90;;;;;;5032061;28;19915;-39
2023/05/11 02:44:58;;;;;;;;;;;14.50;99.90;;;;;;5031994;28;19905;-39
2023/05/11 02:47:29;;;;;;;;;;;14.50;99.90;;;;;;5031431;28;20355;-40
2023/05/11 02:49:56;;;;;;;;;;;14.50;99.90;;;;;;5031948;28;20382;-40
2023/05/11 02:52:23;;;;;;;;;;;14.50;99.90;;;;;;5031834;28;20274;-39
2023/05/11 02:54:49;;;;;;;;;;;14.50;99.90;;;;;;5031891;28;19912;-39
2023/05/11 02:57:14;;;;;;;;;;;14.50;99.90;;;;;;5031368;28;19909;-41
2023/05/11 02:59:40;;;;;;;;;;;14.50;99.90;;;;;;5031846;28;19927;-40
2023/05/11 03:02:06;;;;;;;;;;;14.40;99.90;;;;;;5031846;28;20024;-39
2023/05/11 03:04:32;;;;;;;;;;;14.40;99.90;;;;;;5031757;28;19959;-39
2023/05/11 03:06:57;;;;;;;;;;;14.50;99.90;;;;;;5031592;28;19909;-39
2023/05/11 03:09:23;;;;;;;;;;;14.50;99.90;;;;;;5031787;28;19991;-40
2023/05/11 03:11:49;;;;;;;;;;;14.50;99.90;;;;;;5031670;28;19941;-39
2023/05/11 03:14:14;;;;;;;;;;;14.40;99.90;;;;;;5031739;28;19916;-39
2023/05/11 03:16:40;;;;;;;;;;;14.40;99.90;;;;;;5031084;28;19927;-39
2023/05/11 03:19:07;;;;;;;;;;;14.40;99.90;;;;;;5031556;28;19949;-40
2023/05/11 03:21:33;;;;;;;;;;;14.50;99.90;;;;;;5031566;28;20305;-39
2023/05/11 03:23:59;;;;;;;;;;;14.40;99.90;;;;;;5031517;28;19948;-39
2023/05/11 03:26:26;;;;;;;;;;;14.40;99.90;;;;;;5030626;28;19955;-41
2023/05/11 03:28:52;;;;;;;;;;;14.40;99.90;;;;;;5031429;28;20282;-40
2023/05/11 03:31:17;;;;;;;;;;;14.40;99.90;;;;;;5031436;28;20232;-40
2023/05/11 03:33:43;;;;;;;;;;;14.40;99.90;;;;;;5031296;28;20366;-40
2023/05/11 03:36:09;;;;;;;;;;;14.40;99.90;;;;;;5030839;28;19905;-39
2023/05/11 03:38:36;;;;;;;;;;;14.40;99.90;;;;;;5031225;28;20298;-40
2023/05/11 03:41:01;;;;;;;;;;;14.40;99.90;;;;;;5031319;28;19905;-39
2023/05/11 03:43:28;;;;;;;;;;;14.40;99.90;;;;;;5031284;28;19905;-40
2023/05/11 03:45:56;;;;;;;;;;;14.40;99.90;;;;;;5031307;28;19909;-39
2023/05/11 03:48:21;;;;;;;;;;;14.40;99.90;;;;;;5031076;28;20275;-39
2023/05/11 03:50:47;;;;;;;;;;;14.40;99.90;;;;;;5031192;28;19905;-39
2023/05/11 03:53:14;;;;;;;;;;;14.40;99.90;;;;;;5031351;28;19913;-39
2023/05/11 03:55:40;;;;;;;;;;;14.40;99.90;;;;;;5031063;28;20358;-40
2023/05/11 03:58:06;;;;;;;;;;;14.40;99.90;;;;;;5030662;28;19958;-39
2023/05/11 04:00:32;;;;;;;;;;;14.40;99.90;;;;;;5031166;28;20313;-40
2023/05/11 04:03:01;;;;;;;;;;;14.40;99.90;;;;;;5030996;28;20391;-41
2023/05/11 04:05:26;;;;;;;;;;;14.40;99.90;;;;;;5031051;28;19917;-39
2023/05/11 04:07:52;;;;;;;;;;;14.40;99.90;;;;;;5030634;28;19935;-39
2023/05/11 04:10:17;;;;;;;;;;;14.30;99.90;;;;;;5031217;28;19905;-40
2023/05/11 04:12:43;;;;;;;;;;;14.30;99.90;;;;;;5031053;28;19956;-39
2023/05/11 04:15:08;;;;;;;;;;;14.30;99.90;;;;;;5031067;28;19905;-39
2023/05/11 04:17:34;;;;;;;;;;;14.30;99.90;;;;;;5030368;28;19995;-41
2023/05/11 04:19:59;;;;;;;;;;;14.40;99.90;;;;;;5030955;28;20019;-39
2023/05/11 04:22:25;;;;;;;;;;;14.40;99.90;;;;;;5031010;28;19966;-39
2023/05/11 04:24:50;;;;;;;;;;;14.30;99.90;;;;;;5030895;28;19915;-39
2023/05/11 04:27:16;;;;;;;;;;;14.30;99.90;;;;;;5030399;28;19998;-39
2023/05/11 04:29:41;;;;;;;;;;;14.30;99.90;;;;;;5030625;28;20405;-39
2023/05/11 04:32:07;;;;;;;;;;;14.30;99.90;;;;;;5030709;28;19920;-39
2023/05/11 04:34:32;;;;;;;;;;;14.30;99.90;;;;;;5031069;28;19999;-39
2023/05/11 04:36:58;;;;;;;;;;;14.30;99.90;;;;;;5030116;28;19913;-39
2023/05/11 04:39:24;;;;;;;;;;;14.30;99.90;;;;;;5033664;28;19996;-39
2023/05/11 04:41:49;;;;;;;;;;;14.30;99.90;;;;;;5034244;28;19916;-39
2023/05/11 04:44:15;;;;;;;;;;;14.30;99.90;;;;;;5034333;28;20305;-39
2023/05/11 04:46:40;;;;;;;;;;;14.30;99.90;;;;;;5033589;28;19905;-39
2023/05/11 04:49:06;;;;;;;;;;;14.30;99.90;;;;;;5034208;28;20297;-39
2023/05/11 04:51:32;;;;;;;;;;;14.30;99.90;;;;;;5034160;28;19994;-40
2023/05/11 04:53:57;;;;;;;;;;;14.30;99.90;;;;;;5034085;28;20297;-40
2023/05/11 04:56:23;;;;;;;;;;;14.30;99.90;;;;;;5033625;28;19988;-39
2023/05/11 04:58:48;;;;;;;;;;;14.30;99.90;;;;;;5033938;28;19912;-38
2023/05/11 05:01:14;;;;;;;;;;;14.30;99.90;;;;;;5033915;28;20047;-39
2023/05/11 05:03:39;;;;;;;;;;;14.30;99.90;;;;;;5034152;28;19909;-39
2023/05/11 05:06:05;;;;;;;;;;;14.30;99.90;;;;;;5033610;28;19905;-39
2023/05/11 05:08:30;;;;;;;;;;;14.30;99.90;;;;;;5033818;28;19951;-39
2023/05/11 05:10:56;;;;;;;;;;;14.30;99.90;;;;;;5033820;28;20385;-39
2023/05/11 05:13:21;;;;;;;;;;;14.30;99.90;;;;;;5034067;28;19913;-39
2023/05/11 05:15:47;;;;;;;;;;;14.30;99.90;;;;;;5033344;28;20346;-39
2023/05/11 05:18:12;;;;;;;;;;;14.30;99.90;;;;;;5033406;28;19917;-40
2023/05/11 05:20:38;;;;;;;;;;;14.30;99.90;;;;;;5033836;28;19948;-39
2023/05/11 05:23:04;;;;;;;;;;;14.30;99.90;;;;;;5033565;28;20357;-39
2023/05/11 05:25:30;;;;;;;;;;;14.30;99.90;;;;;;5033466;28;19909;-41
2023/05/11 05:27:55;;;;;;;;;;;14.30;99.90;;;;;;5032988;28;19949;-39
2023/05/11 05:30:21;;;;;;;;;;;14.30;99.90;;;;;;5033444;28;19952;-39
2023/05/11 05:32:47;;;;;;;;;;;14.30;99.90;;;;;;5033293;28;19917;-39
2023/05/11 05:35:12;;;;;;;;;;;14.30;99.90;;;;;;5033641;28;19916;-40
2023/05/11 05:37:37;;;;;;;;;;;14.30;99.90;;;;;;5032731;28;20007;-40
2023/05/11 05:40:03;;;;;;;;;;;14.30;99.90;;;;;;5033266;28;19905;-41
2023/05/11 05:42:29;;;;;;;;;;;14.30;99.90;;;;;;5033223;28;19905;-39
2023/05/11 05:44:55;;;;;;;;;;;14.30;99.90;;;;;;5033175;28;19952;-40
2023/05/11 05:47:20;;;;;;;;;;;14.30;99.90;;;;;;5032467;28;19932;-39
2023/05/11 05:49:46;;;;;;;;;;;14.30;99.90;;;;;;5032740;28;19905;-40
2023/05/11 05:52:11;;;;;;;;;;;14.30;99.90;;;;;;5032946;28;19913;-39
2023/05/11 05:54:37;;;;;;;;;;;14.30;99.90;;;;;;5032954;28;19905;-40
2023/05/11 05:57:02;;;;;;;;;;;14.30;99.90;;;;;;5032388;28;19905;-39
2023/05/11 05:59:28;;;;;;;;;;;14.30;99.90;;;;;;5032851;28;19905;-40
2023/05/11 06:01:54;;;;;;;;;;;14.30;99.90;;;;;;5032770;28;19908;-39
2023/05/11 06:04:19;;;;;;;;;;;14.30;99.90;;;;;;5032983;28;19972;-39
2023/05/11 06:06:45;;;;;;;;;;;14.30;99.90;;;;;;5032125;28;19912;-39
2023/05/11 06:09:11;;;;;;;;;;;14.30;99.90;;;;;;5032625;28;20413;-39
2023/05/11 06:11:37;;;;;;;;;;;14.30;99.90;;;;;;5032692;28;19916;-39
2023/05/11 06:14:02;;;;;;;;;;;14.30;99.90;;;;;;5032555;28;19913;-39
2023/05/11 06:16:28;;;;;;;;;;;14.30;99.90;;;;;;5031868;28;19905;-40
2023/05/11 06:18:53;;;;;;;;;;;14.40;99.90;;;;;;5032382;28;19971;-40
2023/05/11 06:21:18;;;;;;;;;;;14.30;99.90;;;;;;5032446;28;19911;-39
2023/05/11 06:23:44;;;;;;;;;;;14.30;99.90;;;;;;5032345;28;19912;-39
2023/05/11 06:26:10;;;;;;;;;;;14.30;99.90;;;;;;5032243;28;19975;-39
2023/05/11 06:28:36;;;;;;;;;;;14.30;99.90;;;;;;5032627;28;19967;-39
2023/05/11 06:31:02;;;;;;;;;;;14.30;99.90;;;;;;5032047;28;20405;-39
2023/05/11 06:33:28;;;;;;;;;;;14.40;99.90;;;;;;5032325;28;19912;-39
2023/05/11 06:35:53;;;;;;;;;;;14.30;99.90;;;;;;5031791;28;19905;-39
2023/05/11 06:38:19;;;;;;;;;;;14.30;99.90;;;;;;5031985;28;20000;-39
2023/05/11 06:40:44;;;;;;;;;;;14.30;99.90;;;;;;5032064;28;20255;-40
2023/05/11 06:43:10;;;;;;;;;;;14.40;99.90;;;;;;5032084;28;19912;-40
2023/05/11 06:45:36;;;;;;;;;;;14.30;99.90;;;;;;5031888;28;19905;-40
2023/05/11 06:48:02;;;;;;;;;;;14.30;99.90;;;;;;5031537;28;19905;-39
2023/05/11 06:50:28;;;;;;;;;;;14.30;99.90;;;;;;5031987;28;20377;-39
2023/05/11 06:52:53;;;;;;;;;;;14.30;99.90;;;;;;5031817;28;20023;-39
2023/05/11 06:55:19;;;;;;;;;;;14.40;99.90;;;;;;5031906;28;20309;-39
2023/05/11 06:57:44;;;;;;;;;;;14.40;99.90;;;;;;5031348;28;19955;-39
2023/05/11 07:00:10;;;;;;;;;;;14.40;99.90;;;;;;5031380;28;19951;-39
2023/05/11 07:02:36;;;;;;;;;;;14.40;99.90;;;;;;5031544;28;19972;-41
2023/05/11 07:05:01;;;;;;;;;;;14.40;99.90;;;;;;5032035;28;19905;-40
2023/05/11 07:07:27;;;;;;;;;;;14.40;99.90;;;;;;5031017;28;19905;-39
2023/05/11 07:09:52;;;;;;;;;;;14.40;99.90;;;;;;5032084;28;19951;-39
2023/05/11 07:12:18;;;;;;;;;;;14.40;99.90;;;;;;5031544;28;19909;-39
2023/05/11 07:14:43;;;;;;;;;;;14.40;99.90;;;;;;5031472;28;19952;-39
2023/05/11 07:17:09;;;;;;;;;;;14.40;99.90;;;;;;5030977;28;19908;-39
2023/05/11 07:19:35;;;;;;;;;;;14.40;99.90;;;;;;5031763;28;19909;-39
2023/05/11 07:22:00;;;;;;;;;;;14.40;99.90;;;;;;5031761;28;20274;-39
2023/05/11 07:24:26;;;;;;;;;;;14.50;99.90;;;;;;5031478;28;19959;-39
2023/05/11 07:26:52;;;;;;;;;;;14.50;99.90;;;;;;5031330;28;19905;-39
2023/05/11 07:29:17;;;;;;;;;;;14.50;99.90;;;;;;5031344;28;19905;-39
2023/05/11 07:31:43;;;;;;;;;;;14.50;99.90;;;;;;5031448;28;19905;-39
2023/05/11 07:34:08;;;;;;;;;;;14.50;99.90;;;;;;5031343;28;19917;-40
2023/05/11 07:36:34;;;;;;;;;;;14.60;99.90;;;;;;5030689;28;19905;-39
2023/05/11 07:39:00;;;;;;;;;;;14.60;99.90;;;;;;5031928;28;20386;-39
2023/05/11 07:41:26;;;;;;;;;;;14.60;99.90;;;;;;5031221;28;19905;-39
2023/05/11 07:43:52;;;;;;;;;;;14.60;99.90;;;;;;5031272;28;19909;-39
2023/05/11 07:46:17;;;;;;;;;;;14.70;99.90;;;;;;5031024;28;19905;-39
2023/05/11 07:48:43;;;;;;;;;;;14.70;99.90;;;;;;5031256;28;19905;-40
2023/05/11 07:51:09;;;;;;;;;;;14.70;99.90;;;;;;5031302;28;20355;-39
2023/05/11 07:53:35;;;;;;;;;;;14.80;99.90;;;;;;5031148;28;19916;-38
2023/05/11 07:56:02;;;;;;;;;;;14.80;99.90;;;;;;5030744;28;19916;-39
2023/05/11 07:58:28;;;;;;;;;;;14.80;99.90;;;;;;5030972;28;19909;-39
2023/05/11 08:00:53;;;;;;;;;;;14.80;99.90;;;;;;5031133;28;19905;-39
2023/05/11 08:03:19;;;;;;;;;;;14.80;99.90;;;;;;5031071;28;20267;-39
2023/05/11 08:05:44;;;;;;;;;;;14.80;99.90;;;;;;5030747;28;19909;-40
2023/05/11 08:08:10;;;;;;;;;;;14.80;99.90;;;;;;5030775;28;19909;-39
2023/05/11 08:10:36;;;;;;;;;;;14.80;99.90;;;;;;5030971;28;19951;-40
2023/05/11 08:13:01;;;;;;;;;;;14.90;99.90;;;;;;5033253;28;19916;-39
2023/05/11 08:15:27;;;;;;;;;;;14.80;99.90;;;;;;5034897;28;20366;-40
2023/05/11 08:17:52;;;;;;;;;;;14.80;99.90;;;;;;5034218;28;19912;-41
2023/05/11 08:20:18;;;;;;;;;;;14.80;99.90;;;;;;5034656;28;20231;-38
2023/05/11 08:22:45;;;;;;;;;;;14.90;99.90;;;;;;5034761;28;19909;-40
2023/05/11 08:25:10;;;;;;;;;;;14.80;99.90;;;;;;5034707;28;19905;-40
2023/05/11 08:27:36;;;;;;;;;;;14.90;99.90;;;;;;5033901;28;20036;-39
2023/05/11 08:30:01;;;;;;;;;;;14.80;99.90;;;;;;5034632;28;19927;-39
2023/05/11 08:32:28;;;;;;;;;;;14.90;99.90;;;;;;5034412;28;19909;-39
2023/05/11 08:34:53;;;;;;;;;;;14.90;99.90;;;;;;5034445;28;20447;-39
2023/05/11 08:37:19;;;;;;;;;;;14.90;99.90;;;;;;5033669;28;19948;-40
2023/05/11 08:39:44;;;;;;;;;;;14.90;99.90;;;;;;5034443;28;20289;-39
2023/05/11 08:42:13;;;;;;;;;;;14.90;99.90;;;;;;5034219;28;19909;-40
2023/05/11 08:44:41;;;;;;;;;;;14.90;99.90;;;;;;5034308;28;19968;-39
2023/05/11 08:47:06;;;;;;;;;;;14.90;99.90;;;;;;5033692;28;19916;-39
2023/05/11 08:49:33;;;;;;;;;;;14.90;99.90;;;;;;5034099;28;19913;-39
2023/05/11 08:52:01;;;;;;;;;;;14.90;99.90;;;;;;5034047;28;19912;-40
2023/05/11 08:54:26;;;;;;;;;;;14.70;99.90;;;;;;5034129;28;19971;-39
2023/05/11 08:56:53;;;;;;;;;;;14.60;99.90;;;;;;5033393;28;20362;-40
2023/05/11 08:59:19;;;;;;;;;;;14.60;99.90;;;;;;5034001;28;20362;-41
2023/05/11 09:01:44;;;;;;;;;;;14.60;99.90;;;;;;5033947;28;19912;-41
2023/05/11 09:04:10;;;;;;;;;;;14.60;99.90;;;;;;5033932;28;19905;-40
2023/05/11 09:06:37;;;;;;;;;;;14.60;99.90;;;;;;5033324;28;19916;-40
2023/05/11 09:09:02;;;;;;;;;;;14.70;99.90;;;;;;5033845;28;19909;-39
2023/05/11 09:11:28;;;;;;;;;;;14.70;99.90;;;;;;5033627;28;19912;-39
2023/05/11 09:13:54;;;;;;;;;;;14.70;99.90;;;;;;5033701;28;19909;-39
2023/05/11 09:16:19;;;;;;;;;;;14.80;99.90;;;;;;5033203;28;19916;-39
2023/05/11 09:18:48;;;;;;;;;;;14.80;99.90;;;;;;5033694;28;20050;-39
2023/05/11 09:21:14;;;;;;;;;;;14.80;99.90;;;;;;5033549;28;20208;-39
2023/05/11 09:23:40;;;;;;;;;;;14.80;99.90;;;;;;5032929;28;19927;-40
2023/05/11 09:26:15;;;;;;;;;;;14.80;99.90;;;;;;5032972;28;19908;-40
2023/05/11 09:28:51;;;;;;;;;;;14.80;99.90;;;;;;5033315;28;19905;-40
2023/05/11 09:31:36;;;;;;;;;;;14.90;99.90;;;;;;5033437;28;19912;-40
2023/05/11 09:34:09;;;;;;;;;;;14.80;99.90;;;;;;5033267;28;19909;-40
2023/05/11 09:36:34;;;;;;;;;;;14.80;99.90;;;;;;5032704;28;19905;-39
2023/05/11 09:39:02;;;;;;;;;;;14.90;99.90;;;;;;5033380;28;19916;-39
2023/05/11 09:41:31;;;;;;;;;;;14.80;99.90;;;;;;5033637;28;19951;-40
2023/05/11 09:44:04;;;;;;;;;;;14.80;99.90;;;;;;5033216;28;20244;-39
2023/05/11 09:46:29;;;;;;;;;;;14.90;99.90;;;;;;5032678;28;19920;-39
2023/05/11 09:49:01;;;;;;;;;;;14.90;99.90;;;;;;5033055;28;20286;-39
2023/05/11 09:51:29;;;;;;;;;;;14.90;99.90;;;;;;5033447;28;20339;-40
2023/05/11 09:53:55;;;;;;;;;;;14.90;99.90;;;;;;5033073;28;20003;-39
2023/05/11 09:56:20;;;;;;;;;;;14.90;99.90;;;;;;5032543;28;19992;-40
2023/05/11 09:58:47;;;;;;;;;;;14.90;99.90;;;;;;5033206;28;19944;-40
2023/05/11 10:01:13;;;;;;;;;;;14.90;99.90;;;;;;5032789;28;19916;-39
2023/05/11 10:03:49;;;;;;;;;;;14.90;99.90;;;;;;5032803;28;19909;-39
2023/05/11 10:06:15;;;;;;;;;;;14.90;99.90;;;;;;5032231;28;19913;-41
2023/05/11 10:08:41;;;;;;;;;;;14.90;99.90;;;;;;5032656;28;20047;-39
2023/05/11 10:11:07;;;;;;;;;;;14.90;99.90;;;;;;5032679;28;20286;-40
2023/05/11 10:13:33;;;;;;;;;;;14.90;99.90;;;;;;5032441;28;19912;-40
2023/05/11 10:16:00;;;;;;;;;;;14.90;99.90;;;;;;5032004;28;19912;-40
2023/05/11 10:18:26;;;;;;;;;;;14.90;99.90;;;;;;5032439;28;19909;-40
2023/05/11 10:20:51;;;;;;;;;;;14.90;99.90;;;;;;5032419;28;19905;-40
2023/05/11 10:23:17;;;;;;;;;;;14.90;99.90;;;;;;5032940;28;19905;-39
2023/05/11 10:25:43;;;;;;;;;;;14.90;99.90;;;;;;5032246;28;20401;-39
2023/05/11 10:28:09;;;;;;;;;;;14.90;99.90;;;;;;5032035;28;19966;-39
2023/05/11 10:30:36;;;;;;;;;;;15.00;99.90;;;;;;5032202;28;19958;-39
2023/05/11 10:33:01;;;;;;;;;;;14.90;99.90;;;;;;5032203;28;20381;-39
2023/05/11 10:35:27;;;;;;;;;;;14.90;99.90;;;;;;5031340;28;19906;-40
2023/05/11 10:37:53;;;;;;;;;;;14.90;99.90;;;;;;5031745;28;19917;-39
2023/05/11 10:40:19;;;;;;;;;;;15.00;99.90;;;;;;5032167;28;19967;-39
2023/05/11 10:42:44;;;;;;;;;;;15.00;99.90;;;;;;5032062;28;20363;-39
2023/05/11 10:45:10;;;;;;;;;;;15.00;99.90;;;;;;5031879;28;19905;-39
2023/05/11 10:47:44;;;;;;;;;;;14.90;99.90;;;;;;5031370;28;20337;-38
2023/05/11 10:50:24;;;;;;;;;;;15.00;99.90;;;;;;5032165;28;19913;-40
2023/05/11 10:53:11;;;;;;;;;;;15.00;99.90;;;;;;5031837;28;19935;-39
2023/05/11 10:56:09;;;;;;;;;;;14.90;99.90;;;;;;5031683;28;20259;-40
2023/05/11 10:58:53;;;;;;;;;;;14.90;99.90;;;;;;5019265;28;19917;-40
2023/05/11 11:01:24;;;;;;;;;;;14.90;99.90;;;;;;5031750;28;20432;-40
2023/05/11 11:03:56;;;;;;;;;;;14.90;99.90;;;;;;5031641;28;20275;-42
2023/05/11 11:06:24;;;;;;;;;;;14.90;99.90;;;;;;5031226;28;19909;-39
2023/05/11 11:09:19;;;;;;;;;;;14.90;99.90;;;;;;5031760;28;20264;-41
2023/05/11 11:11:45;;;;;;;;;;;15.00;99.90;;;;;;5026713;28;19909;-40
2023/05/11 11:14:12;;;;;;;;;;;15.00;99.90;;;;;;5031384;28;19915;-40
2023/05/11 11:16:38;;;;;;;;;;;14.90;99.90;;;;;;5030992;28;19955;-39
2023/05/11 11:19:22;;;;;;;;;;;14.90;99.90;;;;;;5031520;28;19995;-41
2023/05/11 11:21:48;;;;;;;;;;;15.00;99.90;;;;;;5031516;28;19928;-40
2023/05/11 11:24:39;;;;;;;;;;;15.00;99.90;;;;;;5031537;28;20373;-40
2023/05/11 11:27:05;;;;;;;;;;;15.00;99.90;;;;;;5028236;28;19912;-40
2023/05/11 11:29:32;;;;;;;;;;;15.00;99.90;;;;;;5031476;28;19905;-40
2023/05/11 11:32:30;;;;;;;;;;;15.00;99.90;;;;;;5031688;28;19912;-40
2023/05/11 11:34:55;;;;;;;;;;;15.00;99.90;;;;;;5019152;28;19932;-40
2023/05/11 11:37:22;;;;;;;;;;;15.00;99.90;;;;;;5030600;28;20382;-40
2023/05/11 11:39:49;;;;;;;;;;;15.00;99.90;;;;;;5031314;28;19991;-40
2023/05/11 11:42:15;;;;;;;;;;;15.00;99.90;;;;;;5031361;28;19920;-40
2023/05/11 11:44:42;;;;;;;;;;;15.00;99.90;;;;;;5031349;28;19968;-40
2023/05/11 11:47:11;;;;;;;;;;;15.00;99.90;;;;;;5031658;28;19905;-40
2023/05/11 11:49:40;;;;;;;;;;;15.00;99.90;;;;;;5035521;28;20313;-40
2023/05/11 11:52:12;;;;;;;;;;;15.00;99.90;;;;;;5035127;28;19909;-40
2023/05/11 11:54:39;;;;;;;;;;;15.00;99.90;;;;;;5035171;28;19905;-40
2023/05/11 11:57:24;;;;;;;;;;;15.00;99.90;;;;;;5034515;28;19905;-40
2023/05/11 11:59:50;;;;;;;;;;;15.00;99.90;;;;;;5035056;28;20016;-39
2023/05/11 12:02:16;;;;;;;;;;;15.00;99.90;;;;;;5034896;28;20422;-39
2023/05/11 12:04:48;;;;;;;;;;;15.00;99.90;;;;;;5033718;28;20000;-40
2023/05/11 12:07:17;;;;;;;;;;;15.00;99.90;;;;;;5034423;28;19948;-40
2023/05/11 12:09:44;;;;;;;;;;;15.00;99.90;;;;;;5035315;28;19909;-40
2023/05/11 12:12:10;;;;;;;;;;;15.10;99.90;;;;;;5034882;28;19912;-39
2023/05/11 12:14:35;;;;;;;;;;;15.10;99.90;;;;;;5034827;28;19904;-39
2023/05/11 12:17:02;;;;;;;;;;;15.10;99.90;;;;;;5034178;28;20281;-41
2023/05/11 12:19:27;;;;;;;;;;;15.10;99.90;;;;;;5034824;28;20436;-39
2023/05/11 12:21:53;;;;;;;;;;;15.10;99.90;;;;;;5034744;28;19948;-40
2023/05/11 12:24:19;;;;;;;;;;;15.10;99.90;;;;;;5034740;28;19933;-40
2023/05/11 12:26:45;;;;;;;;;;;15.10;99.90;;;;;;5034173;28;20131;-39
2023/05/11 12:29:12;;;;;;;;;;;15.10;99.90;;;;;;5034558;28;20281;-39
2023/05/11 12:31:39;;;;;;;;;;;15.20;99.90;;;;;;5034484;28;19931;-40
2023/05/11 12:34:04;;;;;;;;;;;15.20;99.90;;;;;;5034432;28;19913;-39
2023/05/11 12:36:31;;;;;;;;;;;15.20;99.90;;;;;;5034174;28;19905;-40
2023/05/11 12:38:58;;;;;;;;;;;15.20;99.90;;;;;;5034430;28;19920;-40
2023/05/11 12:41:23;;;;;;;;;;;15.20;99.90;;;;;;5034337;28;19912;-40
2023/05/11 12:43:49;;;;;;;;;;;15.20;99.90;;;;;;5034126;28;19905;-40
2023/05/11 12:46:16;;;;;;;;;;;15.20;99.90;;;;;;5034014;28;19944;-40
2023/05/11 12:48:41;;;;;;;;;;;15.20;99.90;;;;;;5034292;28;19952;-40
2023/05/11 12:51:07;;;;;;;;;;;15.20;99.90;;;;;;5034178;28;20358;-39
2023/05/11 12:53:37;;;;;;;;;;;15.20;99.90;;;;;;5034064;28;19917;-40
2023/05/11 12:56:03;;;;;;;;;;;15.20;99.90;;;;;;5033541;28;20370;-39
2023/05/11 12:58:36;;;;;;;;;;;15.20;99.90;;;;;;5032732;28;20106;-40
2023/05/11 13:01:02;;;;;;;;;;;15.20;99.90;;;;;;5033977;28;19905;-40
2023/05/11 13:03:28;;;;;;;;;;;15.20;99.90;;;;;;5034087;28;20332;-39
2023/05/11 13:06:07;;;;;;;;;;;15.20;99.90;;;;;;5033441;28;19909;-38
2023/05/11 13:08:36;;;;;;;;;;;15.20;99.90;;;;;;5033678;28;19909;-38
2023/05/11 13:11:24;;;;;;;;;;;15.20;99.90;;;;;;5033740;28;19909;-38
2023/05/11 13:13:54;;;;;;;;;;;15.00;99.90;;;;;;5033711;28;19913;-38
2023/05/11 13:16:29;;;;;;;;;;;15.00;99.90;;;;;;5033195;28;19909;-37
2023/05/11 13:18:58;;;;;;;;;;;15.00;99.90;;;;;;5033712;28;20127;-38
2023/05/11 13:21:24;;;;;;;;;;;15.00;99.90;;;;;;5033482;28;20370;-39
2023/05/11 13:23:50;;;;;;;;;;;15.00;99.90;;;;;;5033592;28;19970;-37
2023/05/11 13:26:21;;;;;;;;;;;15.00;99.90;;;;;;5033028;28;19925;-38
2023/05/11 13:28:47;;;;;;;;;;;15.00;99.90;;;;;;5033383;28;20374;-38
2023/05/11 13:31:12;;;;;;;;;;;15.10;99.90;;;;;;5033463;28;19955;-38
2023/05/11 13:33:38;;;;;;;;;;;15.10;99.90;;;;;;5033364;28;19959;-38
2023/05/11 13:36:03;;;;;;;;;;;15.10;99.90;;;;;;5032760;28;19913;-38
2023/05/11 13:38:29;;;;;;;;;;;15.10;99.90;;;;;;5033547;28;19920;-38
2023/05/11 13:40:55;;;;;;;;;;;15.10;99.90;;;;;;5033307;28;19905;-38
2023/05/11 13:43:20;;;;;;;;;;;15.10;99.90;;;;;;5033270;28;19966;-39
2023/05/11 13:45:46;;;;;;;;;;;15.10;99.90;;;;;;5033215;28;20274;-39
2023/05/11 13:48:11;;;;;;;;;;;15.20;99.90;;;;;;5032708;28;19909;-38
2023/05/11 13:50:36;;;;;;;;;;;15.10;99.90;;;;;;5032951;28;19909;-39
2023/05/11 13:53:02;;;;;;;;;;;15.20;99.90;;;;;;5031752;28;20125;-38
2023/05/11 13:55:28;;;;;;;;;;;15.20;99.90;;;;;;5033065;28;19912;-38
2023/05/11 13:57:54;;;;;;;;;;;15.20;99.90;;;;;;5032509;28;19909;-38
2023/05/11 14:00:20;;;;;;;;;;;15.20;99.90;;;;;;5032939;28;19909;-37
2023/05/11 14:02:48;;;;;;;;;;;15.20;99.90;;;;;;5032981;28;20259;-38
2023/05/11 14:05:13;;;;;;;;;;;15.20;99.90;;;;;;5032794;28;19913;-39
2023/05/11 14:07:40;;;;;;;;;;;15.20;99.90;;;;;;5032253;28;20016;-39
2023/05/11 14:10:06;;;;;;;;;;;15.20;99.90;;;;;;5032598;28;19936;-38
2023/05/11 14:12:32;;;;;;;;;;;15.30;99.90;;;;;;5031262;28;19909;-38
2023/05/11 14:14:57;;;;;;;;;;;15.20;99.90;;;;;;5032628;28;20333;-38